Huvudsida
METAR-TAF:

METAR-TAF

Flygplatser :

Exeter Airport

Exeter, England

latitud: 50-44N, longitud: 003-25W, höjd: 30 m

Aktuellt väderrapport

Denna rapport gjordes för 3 timmar och 13 minuter sedan, klockan 00:50 UTC
Vind 5 kt från väst
Temperatur 13°C
Fuktighet 94%
Tryck 1017 hPa
Sikt 10 km eller mer
Få moln på en höjd av 1000 ft
Spridda moln på en höjd av 2400 ft

METAR: EGTE 150050Z 28005KT 9999 FEW010 SCT024 13/12 Q1017

Tid: 05:03 (04:03 UTC)

Väderprognos

Denna rapport gjordes för 7 timmar och 58 minuter sedan, klockan 20:05 UTC
Prognos gäller från 14 kl. 21 UTC till 15 kl. 02 UTC
Vind 8 kt från väst/nordväst
Sikt 10 km eller mer
Spridda moln på en höjd av 3500 ft
Temporärt
från 14 kl. 21 UTC till 15 kl. 02 UTC
Sikt: 8000 m
Brutna moln på en höjd av 1400 ft
lätt regn
Sannolikhet 30% :
Temporärt
från 14 kl. 21 UTC till 15 kl. 02 UTC
Brutna moln på en höjd av 900 ft

TAF: EGTE 142005Z 1421/1502 30008KT 9999 SCT035 TEMPO 1421/1502 8000 -RA BKN014 PROB30 TEMPO 1421/1502 BKN009

Aktuella väderrapporter och prognoser från 4000 flygplatser (METAR- och TAF-rapporter).

De tillgängliga stationerna syns som gula och röda prickar på kartan.

För musen över prickarna för att se namnen på stationerna.

Klicka sedan för att få väderrapporter och prognoser.

För att ändra kartan: Klicka på de gröna knapparna med ett svart kors på för att zooma in; den gröna knappen med ett streck på för att zooma ut; eller på de gröna pilarna för angränsande kartor.


METAR-TAF: